Time;durP1;ratioP1;P1;durP2;ratioP2;P2;SDS_P1;SDS_P2;PMS_P1;PMS_P2;Temp;Humidity;BMP_temperature;BMP_pressure;BME280_temperature;BME280_humidity;BME280_pressure;Samples;Min_cycle;Max_cycle;Signal;HPM_P1;HPM_P2
2022/08/01 00:01:08;;;;;;;15.27;13.77;;;;;;;22.70;70.56;98902.47;5014922;28;20611;-83
2022/08/01 00:03:33;;;;;;;15.00;13.40;;;;;;;22.63;70.33;98898.25;5014922;28;20169;-83
2022/08/01 00:05:59;;;;;;;14.53;13.13;;;;;;;22.27;69.72;98829.91;5014864;28;20189;-83
2022/08/01 00:08:24;;;;;;;14.47;13.03;;;;;;;21.70;69.33;98717.97;5014276;28;20218;-84
2022/08/01 00:10:50;;;;;;;14.37;12.77;;;;;;;22.66;68.90;98891.31;5014915;28;20186;-83
2022/08/01 00:13:15;;;;;;;14.27;12.97;;;;;;;22.35;68.49;98822.91;5014431;28;20166;-83
2022/08/01 00:15:41;;;;;;;13.03;11.83;;;;;;;22.42;68.14;98837.44;5014622;28;20194;-83
2022/08/01 00:18:06;;;;;;;15.87;11.60;;;;;;;22.54;66.92;98834.69;5013815;28;20615;-83
2022/08/01 00:20:31;;;;;;;13.00;11.80;;;;;;;22.88;66.63;98890.16;5014180;28;20203;-83
2022/08/01 00:22:57;;;;;;;14.10;12.10;;;;;;;22.74;65.74;98842.22;5013947;28;20249;-83
2022/08/01 00:25:22;;;;;;;13.63;12.10;;;;;;;23.05;65.63;98889.06;5014041;28;20296;-83
2022/08/01 00:27:48;;;;;;;14.27;12.17;;;;;;;23.02;65.13;98889.13;5013779;28;20174;-82
2022/08/01 00:30:13;;;;;;;14.37;12.53;;;;;;;22.97;65.32;98880.59;5014015;28;20224;-84
2022/08/01 00:32:38;;;;;;;13.80;12.40;;;;;;;22.68;64.62;98826.81;5014466;28;20174;-83
2022/08/01 00:35:04;;;;;;;13.97;12.53;;;;;;;22.84;65.46;98867.88;5014278;28;20222;-84
2022/08/01 00:37:30;;;;;;;13.47;12.17;;;;;;;22.24;65.49;98798.97;5014394;28;20570;-84
2022/08/01 00:39:55;;;;;;;14.23;12.70;;;;;;;22.45;66.15;98841.69;5014240;28;20171;-84
2022/08/01 00:42:21;;;;;;;13.13;11.80;;;;;;;22.65;65.83;98899.97;5014608;28;20159;-84
2022/08/01 00:44:46;;;;;;;13.53;12.23;;;;;;;21.95;66.20;98781.28;5014145;28;20205;-84
2022/08/01 00:47:12;;;;;;;13.73;12.33;;;;;;;22.34;66.23;98863.31;5014273;28;20166;-84
2022/08/01 00:49:37;;;;;;;13.80;12.50;;;;;;;20.89;66.07;98609.84;5013972;28;20166;-84
2022/08/01 00:52:04;;;;;;;14.27;12.77;;;;;;;20.82;66.75;98644.19;5013814;28;20185;-84
2022/08/01 00:54:31;;;;;;;13.37;12.07;;;;;;;21.91;66.50;98800.25;5013809;28;20167;-84
2022/08/01 00:56:58;;;;;;;14.30;12.90;;;;;;;21.61;66.02;98755.03;5014042;28;20194;-84
2022/08/01 00:59:24;;;;;;;14.53;13.13;;;;;;;21.84;66.71;98818.34;5013805;28;20170;-84
2022/08/01 01:01:49;;;;;;;15.03;13.43;;;;;;;22.39;66.46;98893.38;5013707;28;20163;-82
2022/08/01 01:04:16;;;;;;;14.63;13.13;;;;;;;22.32;66.84;98897.75;5013956;28;20186;-84
2022/08/01 01:06:55;;;;;;;14.40;12.90;;;;;;;21.11;66.97;98710.88;5014164;28;20170;-83
2022/08/01 01:09:57;;;;;;;14.13;12.73;;;;;;;20.89;67.30;98683.63;5019023;28;20171;-84
2022/08/01 01:12:55;;;;;;;14.07;12.67;;;;;;;21.98;68.23;98899.81;5021262;28;20162;-83
2022/08/01 01:15:23;;;;;;;13.73;12.53;;;;;;;21.99;68.29;98900.69;4972660;28;20196;-83
2022/08/01 01:17:57;;;;;;;14.00;12.60;;;;;;;21.98;68.41;98904.97;4972784;28;20203;-84
2022/08/01 01:20:29;;;;;;;13.83;12.53;;;;;;;21.85;68.47;98887.91;4976221;28;20183;-84
2022/08/01 01:23:31;;;;;;;14.53;13.10;;;;;;;21.89;68.52;98906.81;4976329;28;20191;-84
2022/08/01 01:26:18;;;;;;;14.03;12.63;;;;;;;21.78;68.74;98902.56;4976041;28;20184;-84
2022/08/01 01:29:08;;;;;;;14.03;12.63;;;;;;;21.13;69.03;98817.25;4976261;28;20187;-83
2022/08/01 01:31:46;;;;;;;14.57;13.17;;;;;;;21.63;69.65;98904.41;4976023;28;20656;-83
2022/08/01 01:34:15;;;;;;;14.57;13.17;;;;;;;20.31;69.25;98680.63;4976307;28;20206;-83
2022/08/01 01:36:43;;;;;;;14.57;13.13;;;;;;;21.42;69.01;98858.25;4956538;28;20244;-84
2022/08/01 01:39:09;;;;;;;14.40;12.90;;;;;;;19.84;69.07;98614.09;4957219;29;20192;-83
2022/08/01 01:41:37;;;;;;;14.07;12.60;;;;;;;21.40;69.13;98884.00;4957088;29;20272;-83
2022/08/01 01:44:04;;;;;;;14.50;13.00;;;;;;;20.21;69.09;98674.69;4940840;29;20617;-84
2022/08/01 01:46:31;;;;;;;14.27;12.87;;;;;;;20.84;69.25;98798.59;4957479;29;20188;-83
2022/08/01 01:48:58;;;;;;;13.60;12.30;;;;;;;21.43;69.80;98917.44;4957071;29;20249;-83
2022/08/01 01:51:27;;;;;;;13.60;12.30;;;;;;;21.44;69.70;98911.44;4960948;28;20203;-84
2022/08/01 01:53:55;;;;;;;14.23;12.90;;;;;;;21.26;69.46;98844.63;4977881;28;20203;-83
2022/08/01 01:56:22;;;;;;;14.13;12.80;;;;;;;21.13;69.96;98848.16;4977140;28;20283;-83
2022/08/01 01:58:53;;;;;;;14.13;12.73;;;;;;;20.52;70.14;98753.34;4978438;28;20172;-83
2022/08/01 02:01:21;;;;;;;13.90;12.60;;;;;;;19.97;70.10;98661.97;4978339;28;20164;-84
2022/08/01 02:03:49;;;;;;;13.00;11.70;;;;;;;20.03;70.29;98685.06;4977583;28;20220;-83
2022/08/01 02:06:16;;;;;;;14.50;13.00;;;;;;;20.05;70.18;98675.66;4977395;28;20548;-83
2022/08/01 02:08:42;;;;;;;14.63;13.10;;;;;;;21.43;70.13;98903.72;4974761;28;21280;-83
2022/08/01 02:11:21;;;;;;;14.00;12.60;;;;;;;20.66;70.02;98781.53;4977488;28;20168;-83
2022/08/01 02:13:56;;;;;;;14.30;12.90;;;;;;;21.00;69.67;98834.50;4977313;28;20164;-83
2022/08/01 02:16:25;;;;;;;16.73;13.53;;;;;;;20.35;69.98;98734.63;4977302;28;20191;-84
2022/08/01 02:18:51;;;;;;;13.80;12.30;;;;;;;20.89;69.63;98801.97;4978467;28;20160;-83
2022/08/01 02:21:27;;;;;;;14.23;12.87;;;;;;;21.39;69.89;98905.47;4976953;28;20182;-84
2022/08/01 02:23:55;;;;;;;14.00;12.17;;;;;;;21.39;69.18;98895.19;4976703;28;20641;-84
2022/08/01 02:26:23;;;;;;;12.97;11.77;;;;;;;21.32;69.37;98890.06;4977687;28;20219;-84
2022/08/01 02:28:59;;;;;;;13.90;12.50;;;;;;;20.51;68.98;98732.78;4977660;28;20164;-84
2022/08/01 02:31:26;;;;;;;13.63;11.33;;;;;;;21.38;69.40;98905.47;4976539;28;20199;-83
2022/08/01 02:34:01;;;;;;;13.20;11.80;;;;;;;20.81;69.18;98799.47;4977348;28;20200;-83
2022/08/01 02:36:30;;;;;;;12.73;11.43;;;;;;;21.38;69.16;98903.75;5011695;28;20665;-84
2022/08/01 02:38:58;;;;;;;10.97;9.77;;;;;;;20.03;68.89;98687.63;5015775;28;20185;-83
2022/08/01 02:41:25;;;;;;;12.20;10.90;;;;;;;21.27;68.75;98878.94;5016096;28;20623;-84
2022/08/01 02:43:53;;;;;;;11.90;10.80;;;;;;;21.44;68.50;98900.28;4997975;28;20691;-84
2022/08/01 02:46:28;;;;;;;12.13;10.47;;;;;;;20.96;68.42;98842.22;5015716;28;20159;-83
2022/08/01 02:48:58;;;;;;;13.57;10.70;;;;;;;20.73;68.45;98797.81;5015578;28;20166;-84
2022/08/01 02:51:25;;;;;;;12.00;10.80;;;;;;;19.37;68.55;98575.78;4998690;28;20175;-84
2022/08/01 02:53:53;;;;;;;12.37;10.73;;;;;;;21.21;68.98;98902.16;5016062;28;20166;-84
2022/08/01 02:56:20;;;;;;;11.90;10.23;;;;;;;20.38;68.61;98760.28;5015043;28;20201;-83
2022/08/01 02:58:46;;;;;;;12.07;10.27;;;;;;;21.17;68.95;98896.19;5015707;28;20172;-83
2022/08/01 03:01:14;;;;;;;11.40;10.30;;;;;;;20.60;68.56;98808.16;5015316;28;20170;-84
2022/08/01 03:03:40;;;;;;;11.77;9.83;;;;;;;20.15;68.80;98744.13;5015926;28;20163;-84
2022/08/01 03:06:07;;;;;;;10.90;9.83;;;;;;;20.58;68.18;98816.75;5015165;28;20250;-84
2022/08/01 03:08:34;;;;;;;11.40;10.20;;;;;;;20.74;67.73;98820.94;5015202;28;20170;-84
2022/08/01 03:11:01;;;;;;;11.73;9.73;;;;;;;20.07;67.58;98720.16;5015636;28;20169;-84
2022/08/01 03:13:29;;;;;;;10.27;8.57;;;;;;;18.98;67.52;98561.38;5015445;28;20251;-83
2022/08/01 03:15:57;;;;;;;11.53;9.90;;;;;;;17.99;66.73;98342.13;5015259;28;20198;-83
2022/08/01 03:18:26;;;;;;;11.17;9.23;;;;;;;20.66;66.86;98806.44;5016782;28;20174;-84
2022/08/01 03:20:54;;;;;;;10.50;9.43;;;;;;;18.85;66.50;98505.88;5015166;28;20167;-84
2022/08/01 03:23:22;;;;;;;10.50;9.40;;;;;;;20.46;66.48;98767.97;5015534;28;20166;-84
2022/08/01 03:25:50;;;;;;;10.00;8.40;;;;;;;21.22;66.17;98884.13;5018194;28;20163;-83
2022/08/01 03:28:18;;;;;;;9.47;7.87;;;;;;;20.77;65.48;98802.06;5015621;28;20248;-83
2022/08/01 03:30:44;;;;;;;9.70;8.70;;;;;;;19.23;65.32;98527.09;5014866;28;20544;-83
2022/08/01 03:33:10;;;;;;;10.37;9.07;;;;;;;21.39;65.42;98889.16;5014779;28;20177;-83
2022/08/01 03:35:42;;;;;;;10.10;9.10;;;;;;;21.13;65.51;98848.16;5013157;28;20290;-83
2022/08/01 03:38:10;;;;;;;10.17;9.17;;;;;;;18.03;65.68;98351.47;5015294;28;20175;-83
2022/08/01 03:40:40;;;;;;;10.10;9.00;;;;;;;21.26;65.47;98883.22;5014809;28;20265;-83
2022/08/01 03:43:09;;;;;;;10.77;9.00;;;;;;;21.22;65.83;98884.13;5013915;28;20155;-83
2022/08/01 03:45:38;;;;;;;10.23;9.10;;;;;;;20.69;66.77;98829.53;5014996;28;20599;-83
2022/08/01 03:48:21;;;;;;;9.90;8.90;;;;;;;20.44;66.01;98775.69;5014751;28;20595;-84
2022/08/01 03:50:50;;;;;;;9.70;8.70;;;;;;;21.19;65.79;98894.47;5014964;28;20167;-84
2022/08/01 03:53:22;;;;;;;9.87;8.60;;;;;;;21.15;65.41;98896.19;5014668;28;20173;-84
2022/08/01 03:55:49;;;;;;;9.67;8.13;;;;;;;21.28;65.08;98896.13;5014787;28;20186;-84
2022/08/01 03:58:15;;;;;;;9.47;8.50;;;;;;;21.27;65.00;98895.25;5019609;28;20171;-83
2022/08/01 04:00:42;;;;;;;9.47;8.47;;;;;;;21.30;64.76;98894.38;5021899;28;20213;-84
2022/08/01 04:03:08;;;;;;;10.57;8.33;;;;;;;21.12;65.27;98882.50;5015094;28;20167;-83
2022/08/01 04:05:33;;;;;;;10.40;8.60;;;;;;;20.88;65.27;98838.84;5014844;28;20162;-84
2022/08/01 04:08:01;;;;;;;10.70;9.03;;;;;;;20.22;64.88;98703.78;5014680;28;20173;-84
2022/08/01 04:10:27;;;;;;;9.93;8.93;;;;;;;21.26;65.22;98895.28;4997239;28;20175;-83
2022/08/01 04:12:53;;;;;;;9.63;8.30;;;;;;;20.49;65.40;98767.97;5014487;28;20169;-84
2022/08/01 04:15:20;;;;;;;9.43;8.40;;;;;;;20.88;65.56;98850.00;5014530;28;20167;-83
2022/08/01 04:17:45;;;;;;;10.60;8.57;;;;;;;20.91;65.63;98851.69;5013762;28;20187;-83
2022/08/01 04:20:11;;;;;;;9.80;8.80;;;;;;;21.27;65.71;98905.56;5014168;28;20177;-84
2022/08/01 04:22:37;;;;;;;10.77;9.13;;;;;;;20.68;65.80;98797.84;5014604;28;20170;-84
2022/08/01 04:25:09;;;;;;;11.93;8.93;;;;;;;21.29;65.66;98905.56;5014613;28;20258;-84
2022/08/01 04:27:37;;;;;;;10.47;8.60;;;;;;;21.41;65.10;98900.31;5014664;28;20221;-84
2022/08/01 04:30:04;;;;;;;11.63;8.60;;;;;;;21.39;65.15;98902.91;5014937;28;20163;-84
2022/08/01 04:32:34;;;;;;;12.77;9.57;;;;;;;21.60;64.41;98901.88;5014707;28;20657;-84
2022/08/01 04:35:02;;;;;;;10.93;9.83;;;;;;;21.86;64.38;98899.06;5014110;28;20218;-84
2022/08/01 04:37:29;;;;;;;12.63;9.60;;;;;;;21.42;64.88;98840.22;5012529;28;20648;-83
2022/08/01 04:39:56;;;;;;;11.93;9.60;;;;;;;21.30;64.19;98781.94;4996484;28;20198;-84
2022/08/01 04:42:22;;;;;;;13.93;9.33;;;;;;;21.80;65.06;98881.06;5013720;28;20162;-83
2022/08/01 04:44:47;;;;;;;10.83;9.70;;;;;;;21.67;64.46;98814.19;5013611;28;20242;-84
2022/08/01 04:47:13;;;;;;;11.33;9.90;;;;;;;21.26;64.45;98733.06;4996009;28;20627;-83
2022/08/01 04:49:40;;;;;;;10.50;9.33;;;;;;;20.79;65.40;98706.00;5013733;28;20195;-83
2022/08/01 04:52:06;;;;;;;10.40;9.30;;;;;;;21.90;65.86;98900.75;4995959;28;20162;-84
2022/08/01 04:54:36;;;;;;;12.30;9.27;;;;;;;22.04;64.80;98898.91;5016458;28;20525;-83
2022/08/01 04:57:03;;;;;;;10.13;8.80;;;;;;;18.54;63.62;98306.91;5018156;28;20186;-83
2022/08/01 04:59:40;;;;;;;8.77;7.73;;;;;;;21.64;62.92;98831.41;5017832;28;20623;-84
2022/08/01 05:02:32;;;;;;;8.60;7.80;;;;;;;22.19;62.13;98903.91;5018204;28;20362;-83
2022/08/01 05:04:57;;;;;;;9.93;7.90;;;;;;;20.96;61.67;98686.09;4976550;28;20740;-83
2022/08/01 05:07:23;;;;;;;8.47;7.67;;;;;;;21.19;61.14;98734.84;4976676;28;20187;-83
2022/08/01 05:09:50;;;;;;;8.87;7.27;;;;;;;21.94;60.09;98841.44;4976538;28;20202;-83
2022/08/01 05:12:16;;;;;;;8.63;7.57;;;;;;;21.33;59.60;98720.13;4976336;28;20277;-82
2022/08/01 05:14:41;;;;;;;8.00;7.23;;;;;;;22.10;59.43;98826.66;4979241;28;20703;-85
2022/08/01 05:17:08;;;;;;;8.13;6.50;;;;;;;22.54;58.61;98901.78;4983300;28;20230;-85
2022/08/01 05:19:35;;;;;;;7.30;6.60;;;;;;;22.55;59.05;98898.31;4994382;28;21192;-84
2022/08/01 05:22:04;;;;;;;6.53;5.60;;;;;;;22.44;57.60;98853.75;4994303;28;20298;-84
2022/08/01 05:24:30;;;;;;;10.60;6.07;;;;;;;22.79;56.81;98892.03;4994079;28;20211;-83
2022/08/01 05:26:57;;;;;;;7.23;6.53;;;;;;;22.80;57.55;98891.13;4994425;28;20191;-84
2022/08/01 05:29:23;;;;;;;11.93;6.87;;;;;;;21.43;56.65;98612.69;4994770;28;20735;-83
2022/08/01 05:31:48;;;;;;;8.90;6.00;;;;;;;21.87;55.93;98653.38;4977708;28;20194;-84
2022/08/01 05:34:14;;;;;;;6.00;5.40;;;;;;;22.16;54.62;98714.00;4994576;28;20622;-84
2022/08/01 05:36:39;;;;;;;6.63;5.37;;;;;;;20.18;54.87;98414.25;4994002;28;20231;-84
2022/08/01 05:39:05;;;;;;;5.90;5.37;;;;;;;22.85;54.24;98845.50;4994278;28;20219;-85
2022/08/01 05:41:34;;;;;;;6.43;4.80;;;;;;;21.12;53.34;98547.88;5007591;28;20190;-86
2022/08/01 05:44:00;;;;;;;5.43;4.67;;;;;;;21.24;52.93;98542.56;5019292;28;20240;-85
2022/08/01 05:46:26;;;;;;;5.83;5.20;;;;;;;23.13;52.47;98877.75;5030457;28;20248;-82
2022/08/01 05:48:51;;;;;;;5.70;4.97;;;;;;;21.86;52.33;98651.66;5023243;28;20186;-83
2022/08/01 05:51:17;;;;;;;6.23;5.40;;;;;;;22.65;51.91;98758.03;5028566;28;20182;-84
2022/08/01 05:53:42;;;;;;;8.80;5.00;;;;;;;23.75;51.36;98897.47;5037165;28;20210;-84
2022/08/01 05:56:07;;;;;;;5.90;4.90;;;;;;;23.51;51.39;98895.28;5035474;28;20202;-85
2022/08/01 05:58:33;;;;;;;6.43;4.80;;;;;;;22.94;50.84;98783.38;5036445;28;20189;-85
2022/08/01 06:00:58;;;;;;;7.33;4.93;;;;;;;22.05;50.17;98570.66;5035648;28;20189;-85
2022/08/01 06:03:24;;;;;;;6.40;4.70;;;;;;;23.03;50.08;98717.84;5034754;28;20198;-83
2022/08/01 06:05:51;;;;;;;5.50;4.47;;;;;;;22.70;49.06;98676.22;5034545;28;20218;-83
2022/08/01 06:08:17;;;;;;;6.93;4.40;;;;;;;24.11;49.10;98869.25;5034816;28;20657;-83
2022/08/01 06:10:42;;;;;;;5.33;4.33;;;;;;;24.12;48.67;98895.09;5053460;28;20199;-83
2022/08/01 06:13:08;;;;;;;7.00;4.60;;;;;;;24.07;48.58;98865.84;5055598;28;20419;-82
2022/08/01 06:15:33;;;;;;;6.07;4.40;;;;;;;24.33;48.19;98847.25;5056266;28;20189;-83
2022/08/01 06:17:59;;;;;;;7.43;4.33;;;;;;;24.23;47.78;98825.88;5056001;28;20174;-84
2022/08/01 06:20:25;;;;;;;5.00;4.27;;;;;;;24.75;47.35;98892.94;5053187;28;20204;-82
2022/08/01 06:22:51;;;;;;;6.70;4.50;;;;;;;24.26;47.17;98837.91;5048659;28;20445;-86
2022/08/01 06:25:17;;;;;;;6.20;4.90;;;;;;;24.77;46.95;98898.09;5037917;28;20428;-86
2022/08/01 06:27:43;;;;;;;5.57;4.20;;;;;;;23.22;46.38;98619.34;5019708;28;20533;-85
2022/08/01 06:30:09;;;;;;;5.70;4.10;;;;;;;23.97;46.20;98697.09;5037573;28;20185;-85
2022/08/01 06:32:34;;;;;;;6.57;4.10;;;;;;;24.52;45.51;98781.28;5035867;28;20186;-85
2022/08/01 06:35:00;;;;;;;6.50;4.00;;;;;;;24.57;44.97;98748.38;5045585;28;20221;-85
2022/08/01 06:37:32;;;;;;;5.07;4.10;;;;;;;24.76;44.44;98765.19;5060357;28;20273;-86
2022/08/01 06:40:02;;;;;;;4.83;4.00;;;;;;;25.32;44.95;98874.44;5019378;28;20197;-86
2022/08/01 06:42:28;;;;;;;4.77;3.57;;;;;;;24.45;44.16;98735.72;5035690;28;20721;-86
2022/08/01 06:44:54;;;;;;;4.73;4.07;;;;;;;24.49;44.16;98729.59;5037061;28;20185;-86
2022/08/01 06:47:19;;;;;;;8.47;4.10;;;;;;;24.91;44.33;98758.84;5020023;28;20185;-87
2022/08/01 06:49:45;;;;;;;6.07;3.80;;;;;;;25.18;42.59;98759.03;5019070;28;20197;-88
2022/08/01 06:52:10;;;;;;;9.30;4.37;;;;;;;25.68;42.13;98806.97;5041370;28;20628;-87
2022/08/01 06:54:35;;;;;;;7.43;4.50;;;;;;;25.03;42.27;98670.47;5029139;28;20229;-87
2022/08/01 06:57:05;;;;;;;5.60;3.87;;;;;;;25.55;42.63;98820.28;5037809;28;20209;-87
2022/08/01 06:59:30;;;;;;;6.13;4.00;;;;;;;25.06;42.93;98736.00;5021491;28;20182;-87
2022/08/01 07:01:56;;;;;;;6.30;4.20;;;;;;;24.88;43.01;98669.13;5019830;28;20204;-86
2022/08/01 07:04:21;;;;;;;9.53;4.30;;;;;;;26.02;43.13;98819.88;5037433;28;20184;-86
2022/08/01 07:06:47;;;;;;;5.32;4.00;;;;;;;25.19;42.20;98651.88;5021877;28;20190;-85
2022/08/01 07:09:12;;;;;;;4.30;3.90;;;;;;;26.00;42.12;98802.66;5037131;28;20182;-85
2022/08/01 07:11:37;;;;;;;4.90;3.70;;;;;;;26.26;42.67;98857.31;5037447;28;20187;-85
2022/08/01 07:14:03;;;;;;;6.18;4.20;;;;;;;25.48;42.36;98717.66;5024455;28;20210;-88
2022/08/01 07:16:28;;;;;;;6.43;3.70;;;;;;;26.40;41.88;98854.34;5038083;28;20201;-86
2022/08/01 07:18:54;;;;;;;6.60;4.10;;;;;;;25.66;41.59;98693.81;5036267;28;20551;-86
2022/08/01 07:21:19;;;;;;;4.22;3.40;;;;;;;26.50;40.39;98861.81;5021674;28;20181;-88
2022/08/01 07:23:45;;;;;;;6.38;4.13;;;;;;;24.77;41.39;98588.25;5019440;28;20204;-87
2022/08/01 07:26:10;;;;;;;8.40;5.50;;;;;;;25.91;40.45;98666.28;5039215;28;20676;-88
2022/08/01 07:28:36;;;;;;;7.50;3.67;;;;;;;25.93;40.77;98698.19;5038805;28;20173;-87
2022/08/01 07:31:01;;;;;;;5.63;3.28;;;;;;;26.11;40.51;98772.06;5019908;28;20192;-85
2022/08/01 07:33:27;;;;;;;5.78;3.53;;;;;;;25.78;40.41;98717.66;5037043;28;20180;-86
2022/08/01 07:35:52;;;;;;;4.72;3.30;;;;;;;26.37;40.79;98809.38;5037738;28;20645;-85
2022/08/01 07:38:18;;;;;;;3.47;3.17;;;;;;;26.67;40.40;98824.97;5038108;28;20210;-86
2022/08/01 07:40:44;;;;;;;7.90;4.57;;;;;;;27.14;39.63;98846.91;5041740;28;20209;-87
2022/08/01 07:43:10;;;;;;;12.02;5.03;;;;;;;27.05;39.30;98745.84;5035866;28;20195;-87
2022/08/01 07:45:35;;;;;;;9.32;4.20;;;;;;;27.60;38.78;98800.31;5025999;28;20209;-86
2022/08/01 07:48:05;;;;;;;9.00;4.10;;;;;;;27.36;37.61;98699.72;5053266;28;20617;-86
2022/08/01 07:50:32;;;;;;;4.18;3.72;;;;;;;27.52;39.16;98836.94;5037354;28;20178;-85
2022/08/01 07:52:57;;;;;;;7.15;3.83;;;;;;;27.44;38.98;98760.94;5035103;28;20201;-88
2022/08/01 07:55:23;;;;;;;8.82;4.75;;;;;;;26.51;38.61;98579.66;5028274;28;20238;-85
2022/08/01 07:57:48;;;;;;;10.48;4.07;;;;;;;25.33;38.89;98457.16;5033889;28;20684;-86
2022/08/01 08:00:14;;;;;;;19.23;9.88;;;;;;;27.99;38.68;98779.84;5034559;28;20183;-84
2022/08/01 08:02:40;;;;;;;13.68;3.75;;;;;;;27.33;38.47;98685.03;5034224;28;20192;-85
2022/08/01 08:05:07;;;;;;;17.70;6.90;;;;;;;27.81;37.55;98710.22;5020392;28;20188;-85
2022/08/01 08:07:32;;;;;;;3.97;3.42;;;;;;;27.61;37.57;98663.31;5039020;28;20182;-85
2022/08/01 08:09:58;;;;;;;6.35;3.83;;;;;;;27.60;38.01;98791.66;5033917;28;20242;-85
2022/08/01 08:12:23;;;;;;;9.95;6.20;;;;;;;27.71;38.04;98725.34;5033529;28;20179;-87
2022/08/01 08:14:49;;;;;;;9.88;5.25;;;;;;;28.25;37.21;98753.69;5035353;28;20259;-88
2022/08/01 08:17:14;;;;;;;6.97;3.65;;;;;;;28.25;37.95;98830.97;5019128;28;20219;-85
2022/08/01 08:19:40;;;;;;;7.22;3.60;;;;;;;27.01;38.09;98620.34;5023300;28;20199;-87
2022/08/01 08:22:07;;;;;;;6.00;3.35;;;;;;;27.88;38.56;98821.81;5034261;28;20195;-85
2022/08/01 08:24:32;;;;;;;3.67;3.38;;;;;;;27.48;38.99;98788.56;5034462;28;20198;-86
2022/08/01 08:26:59;;;;;;;4.30;3.30;;;;;;;27.71;38.09;98816.38;5033353;28;20206;-87
2022/08/01 08:29:26;;;;;;;6.60;4.05;;;;;;;28.26;37.71;98822.25;5032645;28;20180;-85
2022/08/01 08:31:54;;;;;;;28.75;11.20;;;;;;;28.84;37.17;98828.75;5033560;28;20191;-85
2022/08/01 08:34:20;;;;;;;10.68;5.05;;;;;;;28.99;36.17;98809.88;5033587;28;20187;-86
2022/08/01 08:36:45;;;;;;;10.80;4.78;;;;;;;29.30;36.62;98831.22;5033731;28;20267;-85
2022/08/01 08:39:11;;;;;;;8.80;3.78;;;;;;;28.13;37.30;98819.22;5033826;28;20195;-86
2022/08/01 08:41:37;;;;;;;7.70;3.85;;;;;;;28.90;37.04;98828.50;5033812;28;20186;-86
2022/08/01 08:44:07;;;;;;;10.95;6.70;;;;;;;28.82;37.01;98775.81;5033824;28;20177;-85
2022/08/01 08:46:36;;;;;;;14.50;7.25;;;;;;;29.05;36.02;98781.81;5047374;28;20282;-85
2022/08/01 08:49:03;;;;;;;8.68;4.00;;;;;;;29.37;36.72;98817.00;5046199;28;20228;-85
2022/08/01 08:51:31;;;;;;;11.85;7.00;;;;;;;29.09;36.99;98814.66;5034380;28;20386;-86
2022/08/01 08:53:57;;;;;;;12.43;5.03;;;;;;;28.98;36.88;98774.31;5035892;28;20181;-87
2022/08/01 08:56:29;;;;;;;5.90;4.22;;;;;;;28.73;36.30;98739.72;5012843;28;20233;-86
2022/08/01 08:58:56;;;;;;;8.82;5.10;;;;;;;29.60;36.95;98816.91;5038257;28;20182;-86
2022/08/01 09:01:22;;;;;;;5.68;3.13;;;;;;;28.51;37.38;98768.34;5036125;28;20173;-84
2022/08/01 09:03:47;;;;;;;5.13;3.20;;;;;;;27.69;37.58;98661.28;5035875;28;20684;-83
2022/08/01 09:06:13;;;;;;;12.90;7.07;;;;;;;29.27;36.56;98797.44;5033968;28;20207;-85
2022/08/01 09:08:39;;;;;;;6.57;4.63;;;;;;;26.43;37.21;98298.69;5035762;28;20178;-86
2022/08/01 09:11:06;;;;;;;13.93;6.95;;;;;;;29.57;37.06;98750.94;5017121;28;20183;-85
2022/08/01 09:13:32;;;;;;;12.68;3.17;;;;;;;27.66;37.13;98563.38;5036257;28;20178;-87
2022/08/01 09:15:58;;;;;;;4.65;3.78;;;;;;;27.92;37.25;98572.75;5036390;28;20199;-86
2022/08/01 09:18:33;;;;;;;7.07;3.20;;;;;;;29.32;36.46;98803.31;5035412;28;20782;-85
2022/08/01 09:21:08;;;;;;;6.00;2.75;;;;;;;29.58;36.63;98795.25;5036273;28;20198;-86
2022/08/01 09:23:42;;;;;;;17.77;8.90;;;;;;;29.68;36.31;98767.00;5035890;28;20187;-86
2022/08/01 09:26:11;;;;;;;22.05;11.25;;;;;;;29.20;36.64;98666.44;5034664;28;20182;-87
2022/08/01 09:28:38;;;;;;;17.08;8.82;;;;;;;29.06;36.70;98671.38;5017383;28;20184;-86
2022/08/01 09:31:08;;;;;;;7.35;4.40;;;;;;;28.95;37.04;98605.84;5035236;28;20264;-88
2022/08/01 09:33:53;;;;;;;7.05;3.67;;;;;;;29.88;36.50;98794.88;5035477;28;20421;-86
2022/08/01 09:36:21;;;;;;;5.68;3.30;;;;;;;29.14;36.33;98712.81;5034466;28;20228;-85
2022/08/01 09:38:46;;;;;;;4.95;2.83;;;;;;;28.94;36.16;98658.03;5034124;28;20189;-86
2022/08/01 09:41:12;;;;;;;3.33;2.88;;;;;;;29.18;36.68;98737.81;5038513;28;20192;-85
2022/08/01 09:43:37;;;;;;;5.00;3.03;;;;;;;28.26;37.86;98633.03;5044142;28;20194;-85
2022/08/01 09:46:13;;;;;;;19.60;9.82;;;;;;;29.89;37.13;98773.91;5041397;28;20190;-86
2022/08/01 09:48:55;;;;;;;11.25;5.38;;;;;;;28.91;36.77;98647.75;5042462;28;20735;-85
2022/08/01 09:51:30;;;;;;;4.43;3.00;;;;;;;29.44;37.21;98776.72;5038250;28;20193;-86
2022/08/01 09:53:56;;;;;;;4.63;3.25;;;;;;;28.38;37.48;98635.13;5038031;28;20190;-87
2022/08/01 09:56:22;;;;;;;14.23;3.40;;;;;;;29.65;36.95;98781.03;5026744;28;20233;-86
2022/08/01 09:58:57;;;;;;;5.32;3.22;;;;;;;29.83;36.50;98779.41;5037486;28;20215;-86
2022/08/01 10:01:23;;;;;;;4.15;3.40;;;;;;;29.37;37.37;98723.13;5039241;28;20196;-83
2022/08/01 10:04:05;;;;;;;3.65;3.20;;;;;;;29.59;37.83;98762.16;5037679;28;20321;-85
2022/08/01 10:06:30;;;;;;;3.50;3.20;;;;;;;29.99;36.09;98767.38;5037390;28;20190;-85
2022/08/01 10:08:56;;;;;;;12.30;6.38;;;;;;;30.29;36.69;98767.75;5036804;28;20185;-85
2022/08/01 10:11:22;;;;;;;5.27;3.07;;;;;;;29.28;36.26;98640.06;5021327;28;20964;-84
2022/08/01 10:13:48;;;;;;;3.58;3.00;;;;;;;29.86;36.87;98669.63;5037317;28;20194;-86
2022/08/01 10:16:15;;;;;;;13.10;5.57;;;;;;;29.94;35.70;98704.09;5036928;28;20204;-86
2022/08/01 10:18:42;;;;;;;19.42;9.15;;;;;;;29.54;35.56;98577.13;5037553;28;20272;-85
2022/08/01 10:21:08;;;;;;;8.60;4.85;;;;;;;30.19;35.15;98675.06;5018634;28;20238;-85
2022/08/01 10:23:36;;;;;;;6.15;4.70;;;;;;;30.60;35.75;98769.81;5037836;28;20190;-86
2022/08/01 10:26:04;;;;;;;4.40;3.55;;;;;;;30.05;36.00;98714.84;5037428;28;20191;-86
2022/08/01 10:28:33;;;;;;;4.28;2.85;;;;;;;30.09;36.02;98758.19;5018501;28;20184;-85
2022/08/01 10:31:00;;;;;;;10.55;5.45;;;;;;;30.15;36.08;98681.34;5038392;28;20238;-87
2022/08/01 10:33:25;;;;;;;4.35;2.83;;;;;;;29.21;36.44;98596.88;5035870;28;20187;-84
2022/08/01 10:35:51;;;;;;;5.18;3.20;;;;;;;29.49;36.65;98673.03;5036960;28;20233;-84
2022/08/01 10:38:17;;;;;;;10.52;5.55;;;;;;;29.00;37.02;98569.16;5038264;28;20243;-86
2022/08/01 10:40:43;;;;;;;12.48;5.63;;;;;;;30.13;37.05;98746.72;5041543;28;20186;-84
2022/08/01 10:43:14;;;;;;;5.30;3.20;;;;;;;30.14;35.97;98713.59;5039585;28;20202;-86
2022/08/01 10:45:41;;;;;;;7.22;5.35;;;;;;;29.62;36.25;98575.03;5045619;28;20188;-85
2022/08/01 10:48:24;;;;;;;8.20;3.70;;;;;;;30.29;35.95;98728.56;5059847;28;20219;-86
2022/08/01 10:50:53;;;;;;;8.05;3.30;;;;;;;28.73;35.82;98479.16;5039791;28;20212;-84
2022/08/01 10:53:22;;;;;;;6.38;4.20;;;;;;;29.85;35.26;98560.09;5039126;28;20185;-87
2022/08/01 10:55:51;;;;;;;9.75;5.18;;;;;;;30.80;35.65;98725.25;5051693;28;20302;-85
2022/08/01 10:58:25;;;;;;;403.70;276.17;;;;;;;29.75;36.38;98677.06;5063284;28;20179;-85
2022/08/01 11:01:15;;;;;;;63.80;44.17;;;;;;;30.38;36.78;98749.06;5040624;28;20183;-84
2022/08/01 11:04:08;;;;;;;19.95;11.30;;;;;;;30.90;36.31;98750.03;5022117;28;20231;-88
2022/08/01 11:06:33;;;;;;;20.35;12.88;;;;;;;31.06;35.43;98752.75;4958425;28;20262;-88
2022/08/01 11:09:03;;;;;;;14.48;9.68;;;;;;;30.61;35.59;98677.41;4974975;28;20226;-88
2022/08/01 11:11:29;;;;;;;16.48;9.00;;;;;;;29.18;37.06;98563.13;4959746;28;20226;-89
2022/08/01 11:14:01;;;;;;;10.00;5.68;;;;;;;30.26;36.63;98747.84;4958169;28;20492;-88
2022/08/01 11:16:26;;;;;;;8.30;5.68;;;;;;;30.70;35.87;98751.00;4975001;28;20304;-88
2022/08/01 11:18:52;;;;;;;4.97;3.65;;;;;;;29.40;35.88;98535.19;4958055;28;20202;-88
2022/08/01 11:21:19;;;;;;;7.80;4.10;;;;;;;29.12;35.22;98423.47;4974869;28;20614;-89
2022/08/01 11:23:48;;;;;;;14.80;9.30;;;;;;;29.71;35.76;98565.94;4958188;28;20211;-89
2022/08/01 11:26:16;;;;;;;14.82;8.95;;;;;;;30.99;35.26;98735.69;4975262;28;20641;-89
2022/08/01 11:28:44;;;;;;;7.90;4.53;;;;;;;30.10;34.78;98607.59;4979123;28;20199;-88
2022/08/01 11:31:14;;;;;;;11.32;6.20;;;;;;;31.25;34.88;98738.69;4976797;28;20301;-88